Time;durP1;ratioP1;P1;durP2;ratioP2;P2;SDS_P1;SDS_P2;PMS_P1;PMS_P2;Temp;Humidity;BMP_temperature;BMP_pressure;BME280_temperature;BME280_humidity;BME280_pressure;Samples;Min_cycle;Max_cycle;Signal;HPM_P1;HPM_P2
2021/07/14 00:00:11;;;;;;;0.80;0.80;;;24.70;45.30;;;;;;5010405;28;20219;-66
2021/07/14 00:02:38;;;;;;;0.80;0.80;;;24.60;45.20;;;;;;5012313;28;20260;-66
2021/07/14 00:05:04;;;;;;;0.70;0.70;;;24.70;45.30;;;;;;5011034;28;20585;-67
2021/07/14 00:07:31;;;;;;;0.90;0.85;;;24.70;45.30;;;;;;5010785;28;20203;-67
2021/07/14 00:09:57;;;;;;;0.93;0.93;;;24.70;45.30;;;;;;5010344;28;20207;-67
2021/07/14 00:12:25;;;;;;;0.90;0.90;;;24.70;45.30;;;;;;5012089;28;20195;-66
2021/07/14 00:22:04;;;;;;;1.92;1.10;;;24.70;45.30;;;;;;5009828;28;20573;-66
2021/07/14 00:23:16;;;;;;;1.10;1.00;;;24.70;45.30;;;;;;5011671;28;20202;-66
2021/07/14 00:25:43;;;;;;;0.82;0.68;;;24.70;45.30;;;;;;5010789;28;20215;-67
2021/07/14 00:28:09;;;;;;;0.80;0.80;;;24.70;45.30;;;;;;5011973;28;20210;-66
2021/07/14 00:30:37;;;;;;;0.88;0.70;;;24.70;45.30;;;;;;5008918;28;20223;-66
2021/07/14 00:33:03;;;;;;;0.93;0.85;;;24.70;45.30;;;;;;5011907;28;20255;-66
2021/07/14 00:35:30;;;;;;;0.80;0.80;;;24.70;45.30;;;;;;5010614;28;20223;-66
2021/07/14 00:37:59;;;;;;;0.98;0.98;;;24.70;45.30;;;;;;5011780;28;20291;-66
2021/07/14 00:40:25;;;;;;;1.10;0.85;;;24.70;45.30;;;;;;5009461;28;20203;-66
2021/07/14 00:42:52;;;;;;;0.90;0.90;;;24.70;45.30;;;;;;5009461;28;20199;-66
2021/07/14 00:45:18;;;;;;;1.45;0.90;;;24.60;45.20;;;;;;5010692;28;20233;-67
2021/07/14 00:47:49;;;;;;;0.80;0.80;;;24.70;45.30;;;;;;5009428;28;20207;-66
2021/07/14 00:50:15;;;;;;;1.05;0.90;;;24.60;45.20;;;;;;4996594;28;20214;-66
2021/07/14 00:52:42;;;;;;;0.88;0.80;;;24.70;45.30;;;;;;5010133;28;20278;-67
2021/07/14 00:55:08;;;;;;;0.70;0.70;;;24.70;45.30;;;;;;5011280;28;20318;-67
2021/07/14 00:57:34;;;;;;;1.00;0.90;;;24.60;45.20;;;;;;5009947;28;20195;-66
2021/07/14 01:00:01;;;;;;;0.80;0.80;;;24.60;45.20;;;;;;5009950;28;20209;-66
2021/07/14 01:02:28;;;;;;;0.80;0.80;;;24.60;45.20;;;;;;5010939;28;20218;-67
2021/07/14 01:04:55;;;;;;;1.05;0.90;;;24.60;45.20;;;;;;5009858;28;20230;-67
2021/07/14 01:07:21;;;;;;;0.70;0.70;;;24.70;45.30;;;;;;5000767;28;20199;-66
2021/07/14 01:09:47;;;;;;;0.82;0.82;;;24.70;45.30;;;;;;5009341;28;20203;-67
2021/07/14 01:12:14;;;;;;;0.68;0.68;;;24.70;45.30;;;;;;5010193;28;20237;-67
2021/07/14 01:14:40;;;;;;;0.93;0.80;;;24.70;45.30;;;;;;5010421;28;20229;-67
2021/07/14 01:17:07;;;;;;;0.82;0.80;;;24.70;45.30;;;;;;5010408;28;20261;-67
2021/07/14 01:19:33;;;;;;;0.80;0.80;;;24.60;45.20;;;;;;5009339;28;20207;-66
2021/07/14 01:22:00;;;;;;;0.98;0.90;;;24.60;45.20;;;;;;5009514;28;20207;-67
2021/07/14 01:24:26;;;;;;;0.93;0.85;;;24.70;45.30;;;;;;5004832;28;20219;-67
2021/07/14 01:26:53;;;;;;;0.85;0.85;;;24.70;45.30;;;;;;5010714;28;20199;-66
2021/07/14 01:29:19;;;;;;;0.70;0.70;;;24.70;45.30;;;;;;5009397;28;20225;-66
2021/07/14 01:31:46;;;;;;;0.85;0.80;;;24.60;45.20;;;;;;5009263;28;20227;-66
2021/07/14 01:34:12;;;;;;;0.80;0.80;;;24.70;45.30;;;;;;5010241;28;20694;-66
2021/07/14 01:36:39;;;;;;;0.80;0.80;;;24.70;45.30;;;;;;5009927;28;20597;-66
2021/07/14 01:39:06;;;;;;;0.75;0.73;;;24.70;45.30;;;;;;5010235;28;20568;-64
2021/07/14 01:41:32;;;;;;;0.90;0.90;;;24.70;45.30;;;;;;5008612;28;20438;-66
2021/07/14 01:43:59;;;;;;;0.80;0.80;;;24.70;45.30;;;;;;5009970;28;20534;-66
2021/07/14 01:46:25;;;;;;;0.70;0.70;;;24.60;45.20;;;;;;5008630;28;20600;-67
2021/07/14 01:48:52;;;;;;;1.55;0.93;;;24.60;45.20;;;;;;5007590;28;20673;-67
2021/07/14 01:51:18;;;;;;;0.70;0.70;;;24.60;45.20;;;;;;5009774;28;20535;-66
2021/07/14 01:53:45;;;;;;;0.70;0.70;;;24.70;45.30;;;;;;5007934;28;20290;-66
2021/07/14 01:56:12;;;;;;;0.88;0.88;;;24.70;45.40;;;;;;5010244;28;20686;-66
2021/07/14 01:58:38;;;;;;;0.70;0.70;;;24.70;45.30;;;;;;5009262;28;20203;-66
2021/07/14 02:01:04;;;;;;;0.70;0.70;;;24.70;45.40;;;;;;5010135;28;20222;-65
2021/07/14 02:03:42;;;;;;;1.17;0.85;;;24.70;45.40;;;;;;5008371;28;20199;-65
2021/07/14 02:06:09;;;;;;;0.95;0.68;;;24.70;45.40;;;;;;5010199;28;20219;-65
2021/07/14 02:08:35;;;;;;;1.23;0.80;;;24.70;45.40;;;;;;5007682;28;20217;-65
2021/07/14 02:11:01;;;;;;;0.80;0.80;;;24.70;45.40;;;;;;5009570;28;20235;-65
2021/07/14 02:13:28;;;;;;;1.63;0.90;;;24.70;45.40;;;;;;5008033;28;20209;-65
2021/07/14 02:15:54;;;;;;;1.00;0.90;;;24.60;45.30;;;;;;5009196;28;20306;-64
2021/07/14 02:18:22;;;;;;;0.80;0.80;;;24.60;45.30;;;;;;5009205;28;20204;-65
2021/07/14 02:20:48;;;;;;;1.00;0.90;;;24.70;45.40;;;;;;5008841;28;20214;-64
2021/07/14 02:23:14;;;;;;;0.70;0.70;;;24.70;45.40;;;;;;5009049;28;20219;-65
2021/07/14 02:25:41;;;;;;;0.88;0.88;;;24.70;45.30;;;;;;5010039;28;20225;-65
2021/07/14 02:28:07;;;;;;;0.75;0.75;;;24.70;45.30;;;;;;5009477;28;20203;-64
2021/07/14 02:30:34;;;;;;;0.82;0.82;;;24.70;45.40;;;;;;5008886;28;20213;-64
2021/07/14 02:33:00;;;;;;;0.70;0.70;;;24.70;45.50;;;;;;5008470;28;20291;-64
2021/07/14 02:35:27;;;;;;;0.70;0.70;;;24.70;45.50;;;;;;5007594;28;20408;-64
2021/07/14 02:37:53;;;;;;;0.80;0.80;;;24.70;45.50;;;;;;5012997;28;20207;-65
2021/07/14 02:40:20;;;;;;;0.80;0.80;;;24.70;45.50;;;;;;5012316;28;20205;-65
2021/07/14 02:42:46;;;;;;;0.82;0.82;;;24.70;45.50;;;;;;5011662;28;20203;-67
2021/07/14 02:45:13;;;;;;;0.95;0.50;;;24.70;45.50;;;;;;5011483;28;20219;-64
2021/07/14 02:47:41;;;;;;;0.90;0.90;;;24.70;45.50;;;;;;5011278;28;20207;-65
2021/07/14 02:50:07;;;;;;;0.90;0.80;;;24.70;45.50;;;;;;5008587;28;20733;-64
2021/07/14 02:52:34;;;;;;;0.85;0.85;;;24.70;45.60;;;;;;5011075;28;20227;-65
2021/07/14 02:55:01;;;;;;;1.10;1.00;;;24.70;45.60;;;;;;5012716;28;20333;-64
2021/07/14 02:57:27;;;;;;;0.70;0.70;;;24.60;45.50;;;;;;5005692;28;20199;-65
2021/07/14 02:59:55;;;;;;;0.80;0.80;;;24.70;45.60;;;;;;5005281;28;20199;-64
2021/07/14 03:02:21;;;;;;;0.70;0.70;;;24.60;45.50;;;;;;5011384;28;20262;-66
2021/07/14 03:04:48;;;;;;;0.95;0.85;;;24.70;45.50;;;;;;5009356;28;20229;-65
2021/07/14 03:07:14;;;;;;;1.23;0.90;;;24.60;45.50;;;;;;5012592;28;20211;-65
2021/07/14 03:09:40;;;;;;;1.27;0.80;;;24.70;45.50;;;;;;5012492;28;20200;-65
2021/07/14 03:12:07;;;;;;;0.75;0.75;;;24.70;45.50;;;;;;5012075;28;20258;-65
2021/07/14 03:14:33;;;;;;;1.42;0.90;;;24.70;45.50;;;;;;5007796;28;20263;-65
2021/07/14 03:17:00;;;;;;;1.15;0.88;;;24.70;45.50;;;;;;5003968;28;20213;-65
2021/07/14 03:19:26;;;;;;;0.90;0.90;;;24.70;46.10;;;;;;5011437;28;21156;-65
2021/07/14 03:21:53;;;;;;;0.80;0.80;;;24.70;45.50;;;;;;5012966;28;20659;-65
2021/07/14 03:24:19;;;;;;;0.80;0.80;;;24.70;45.50;;;;;;5012130;28;20234;-66
2021/07/14 03:26:46;;;;;;;0.90;0.70;;;24.70;45.50;;;;;;5011617;28;20315;-65
2021/07/14 03:29:12;;;;;;;0.75;0.75;;;24.70;45.50;;;;;;5012247;28;20681;-66
2021/07/14 03:31:39;;;;;;;0.80;0.80;;;24.60;45.40;;;;;;5010641;28;20691;-64
2021/07/14 03:34:05;;;;;;;4.25;0.93;;;24.70;45.50;;;;;;5010946;28;20229;-65
2021/07/14 03:36:31;;;;;;;0.80;0.73;;;24.70;45.50;;;;;;5012296;28;20719;-65
2021/07/14 03:38:58;;;;;;;1.95;0.90;;;24.70;45.50;;;;;;5009871;28;20225;-65
2021/07/14 03:41:24;;;;;;;1.27;1.17;;;24.70;45.50;;;;;;5011268;28;20199;-66
2021/07/14 03:43:51;;;;;;;0.70;0.70;;;24.70;45.50;;;;;;5011081;28;20652;-65
2021/07/14 03:46:17;;;;;;;0.65;0.65;;;24.70;45.50;;;;;;5009734;28;20613;-65
2021/07/14 03:48:44;;;;;;;0.85;0.82;;;24.70;45.50;;;;;;5010156;28;20203;-66
2021/07/14 03:51:10;;;;;;;0.80;0.80;;;24.70;45.50;;;;;;5012312;28;20222;-71
2021/07/14 03:53:37;;;;;;;0.80;0.80;;;24.70;45.50;;;;;;5011882;28;20203;-66
2021/07/14 03:56:03;;;;;;;0.90;0.90;;;24.70;45.50;;;;;;5012308;28;20213;-66
2021/07/14 03:58:30;;;;;;;2.83;0.77;;;24.70;45.50;;;;;;5010870;28;20199;-66
2021/07/14 04:00:56;;;;;;;0.70;0.70;;;24.70;45.60;;;;;;5011684;28;20207;-66
2021/07/14 04:03:25;;;;;;;1.08;0.93;;;24.70;45.70;;;;;;5011849;28;20628;-66
2021/07/14 04:05:52;;;;;;;0.70;0.70;;;24.60;45.60;;;;;;5011166;28;20590;-66
2021/07/14 04:08:18;;;;;;;0.70;0.70;;;24.70;45.70;;;;;;5010710;28;20656;-66
2021/07/14 04:10:44;;;;;;;0.90;0.90;;;24.70;45.70;;;;;;5011663;28;20306;-66
2021/07/14 04:13:11;;;;;;;0.82;0.82;;;24.60;45.60;;;;;;5010829;28;20234;-66
2021/07/14 04:15:38;;;;;;;1.23;0.82;;;24.70;45.70;;;;;;5010874;28;20226;-66
2021/07/14 04:18:05;;;;;;;0.75;0.70;;;24.70;45.70;;;;;;5010603;28;20203;-66
2021/07/14 04:20:32;;;;;;;0.73;0.73;;;24.70;45.80;;;;;;5011181;28;20282;-66
2021/07/14 04:22:58;;;;;;;0.80;0.80;;;24.70;45.80;;;;;;5010540;28;20298;-66
2021/07/14 04:25:24;;;;;;;0.82;0.70;;;24.70;45.80;;;;;;5011183;28;20229;-66
2021/07/14 04:27:51;;;;;;;0.95;0.90;;;24.70;45.80;;;;;;5011958;28;20569;-66
2021/07/14 04:30:17;;;;;;;0.70;0.70;;;24.70;45.80;;;;;;5004693;28;20500;-66
2021/07/14 04:32:44;;;;;;;1.17;0.70;;;24.70;45.80;;;;;;5006723;28;20703;-67
2021/07/14 04:35:10;;;;;;;1.13;1.10;;;24.60;45.70;;;;;;5010806;28;20724;-66
2021/07/14 04:37:37;;;;;;;0.70;0.70;;;24.70;45.80;;;;;;5011766;28;20215;-66
2021/07/14 04:40:03;;;;;;;0.80;0.80;;;24.70;45.80;;;;;;5010021;28;20278;-66
2021/07/14 04:42:30;;;;;;;0.70;0.70;;;24.70;45.70;;;;;;5010869;28;20275;-66
2021/07/14 04:44:56;;;;;;;0.80;0.80;;;24.70;45.70;;;;;;5009742;28;20310;-67
2021/07/14 04:47:23;;;;;;;0.70;0.70;;;24.70;45.80;;;;;;5009192;28;20207;-66
2021/07/14 04:49:49;;;;;;;0.70;0.70;;;24.70;45.70;;;;;;5009573;28;20207;-66
2021/07/14 04:52:15;;;;;;;1.60;0.90;;;24.70;45.70;;;;;;5011000;28;20219;-66
2021/07/14 04:54:42;;;;;;;1.00;0.90;;;24.70;45.70;;;;;;5010458;28;20233;-66
2021/07/14 04:57:09;;;;;;;1.63;0.70;;;24.70;45.70;;;;;;5002548;28;20215;-66
2021/07/14 04:59:35;;;;;;;1.05;0.98;;;24.70;45.70;;;;;;4997501;28;20195;-66
2021/07/14 05:02:02;;;;;;;1.60;0.85;;;24.70;45.70;;;;;;5009785;28;20211;-67
2021/07/14 05:04:28;;;;;;;0.75;0.75;;;24.70;45.70;;;;;;5011072;28;20227;-66
2021/07/14 05:06:55;;;;;;;0.90;0.90;;;24.70;45.70;;;;;;5010194;28;20286;-66
2021/07/14 05:09:21;;;;;;;1.95;0.77;;;24.70;45.60;;;;;;5009894;28;20210;-66
2021/07/14 05:11:48;;;;;;;1.42;0.90;;;24.70;45.70;;;;;;5009853;28;20438;-66
2021/07/14 05:14:14;;;;;;;0.70;0.70;;;24.70;45.70;;;;;;5011691;28;20238;-66
2021/07/14 05:16:41;;;;;;;1.10;1.02;;;24.70;45.60;;;;;;5010462;28;20309;-66
2021/07/14 05:19:08;;;;;;;0.70;0.70;;;24.70;45.70;;;;;;5011058;28;20217;-66
2021/07/14 05:21:35;;;;;;;0.90;0.90;;;24.70;45.60;;;;;;5009355;28;20254;-66
2021/07/14 05:24:02;;;;;;;1.63;0.90;;;24.60;45.50;;;;;;5010759;28;20231;-66
2021/07/14 05:26:28;;;;;;;0.80;0.80;;;24.70;45.60;;;;;;5010251;28;20242;-66
2021/07/14 05:28:55;;;;;;;0.85;0.70;;;24.70;45.70;;;;;;5010570;28;20245;-66
2021/07/14 05:31:21;;;;;;;0.70;0.70;;;24.70;45.60;;;;;;5010444;28;20210;-66
2021/07/14 05:33:48;;;;;;;0.60;0.60;;;24.70;45.60;;;;;;5011190;28;20223;-66
2021/07/14 05:36:14;;;;;;;0.80;0.80;;;24.70;45.60;;;;;;5011058;28;20659;-66
2021/07/14 05:38:41;;;;;;;0.73;0.73;;;24.70;45.50;;;;;;5010835;28;20211;-66
2021/07/14 05:41:07;;;;;;;1.10;0.93;;;24.70;45.60;;;;;;5011743;28;20229;-65
2021/07/14 05:43:34;;;;;;;1.08;0.98;;;24.70;45.50;;;;;;5009380;28;20273;-66
2021/07/14 05:46:00;;;;;;;1.50;0.95;;;24.70;45.60;;;;;;5010432;28;20290;-67
2021/07/14 05:48:26;;;;;;;0.70;0.70;;;24.70;45.60;;;;;;5010312;28;20203;-66
2021/07/14 05:50:53;;;;;;;0.55;0.55;;;24.70;45.60;;;;;;5013312;28;20293;-65
2021/07/14 05:53:19;;;;;;;0.98;0.85;;;24.70;45.50;;;;;;5008885;28;20261;-66
2021/07/14 05:55:46;;;;;;;0.82;0.75;;;24.70;45.50;;;;;;5010465;28;20210;-67
2021/07/14 05:58:13;;;;;;;0.80;0.80;;;24.70;45.50;;;;;;5010378;28;20199;-66
2021/07/14 06:00:39;;;;;;;1.00;0.90;;;24.70;45.50;;;;;;5009649;28;20207;-67
2021/07/14 06:03:06;;;;;;;0.85;0.80;;;24.70;45.50;;;;;;5004895;28;20234;-66
2021/07/14 06:05:32;;;;;;;1.58;0.90;;;24.70;45.50;;;;;;5010159;28;20200;-66
2021/07/14 06:07:59;;;;;;;0.93;0.90;;;24.70;45.50;;;;;;5010592;28;20290;-67
2021/07/14 06:10:25;;;;;;;0.70;0.70;;;24.70;45.50;;;;;;5009816;28;20213;-67
2021/07/14 06:12:56;;;;;;;1.05;0.70;;;24.70;45.50;;;;;;5013190;28;20335;-67
2021/07/14 06:15:22;;;;;;;0.70;0.70;;;24.70;45.50;;;;;;5013852;28;20206;-67
2021/07/14 06:17:49;;;;;;;0.80;0.80;;;24.70;45.50;;;;;;5013843;28;20354;-66
2021/07/14 06:20:15;;;;;;;0.77;0.77;;;24.70;45.50;;;;;;5014301;28;20205;-67
2021/07/14 06:22:41;;;;;;;0.80;0.80;;;24.70;45.50;;;;;;5012862;28;20203;-66
2021/07/14 06:25:09;;;;;;;0.70;0.70;;;24.70;45.50;;;;;;5014327;28;20223;-66
2021/07/14 06:27:36;;;;;;;0.80;0.80;;;24.70;45.50;;;;;;5013297;28;20231;-66
2021/07/14 06:30:05;;;;;;;0.82;0.82;;;24.70;45.50;;;;;;5013836;28;20207;-66
2021/07/14 06:32:31;;;;;;;0.80;0.70;;;24.70;45.50;;;;;;5002633;28;20265;-67
2021/07/14 06:34:58;;;;;;;0.70;0.70;;;24.70;45.50;;;;;;5013200;28;20305;-66
2021/07/14 06:37:24;;;;;;;0.90;0.90;;;24.70;45.50;;;;;;5012884;28;20199;-66
2021/07/14 06:39:51;;;;;;;1.40;1.05;;;24.70;45.50;;;;;;5009481;28;20203;-66
2021/07/14 06:42:17;;;;;;;1.00;0.90;;;24.70;45.50;;;;;;4993698;28;20218;-66
2021/07/14 06:44:44;;;;;;;0.80;0.80;;;24.70;45.50;;;;;;5007033;28;20219;-66
2021/07/14 06:47:10;;;;;;;0.80;0.80;;;24.70;45.50;;;;;;5013025;28;20203;-66
2021/07/14 06:49:37;;;;;;;0.70;0.70;;;24.70;45.50;;;;;;5012658;28;20214;-66
2021/07/14 06:52:03;;;;;;;1.67;0.80;;;24.70;45.50;;;;;;5013575;28;20318;-66
2021/07/14 06:54:29;;;;;;;1.10;0.75;;;24.70;45.50;;;;;;5012124;28;20248;-67
2021/07/14 06:56:56;;;;;;;0.90;0.82;;;24.70;45.50;;;;;;5012724;28;20207;-66
2021/07/14 06:59:22;;;;;;;0.60;0.60;;;24.70;45.50;;;;;;5012283;28;20203;-66
2021/07/14 07:01:49;;;;;;;0.75;0.75;;;24.70;45.50;;;;;;5012364;28;20225;-66
2021/07/14 07:04:15;;;;;;;0.70;0.70;;;24.70;45.50;;;;;;5011722;28;20219;-66
2021/07/14 07:06:42;;;;;;;0.80;0.80;;;24.70;45.50;;;;;;5011530;28;20200;-72
2021/07/14 07:09:08;;;;;;;1.23;0.80;;;24.70;45.50;;;;;;5004612;28;20710;-69
2021/07/14 07:11:36;;;;;;;1.00;0.82;;;24.70;45.70;;;;;;5018264;28;20200;-68
2021/07/14 07:14:03;;;;;;;4.63;1.08;;;24.70;46.30;;;;;;5014131;28;20230;-61
2021/07/14 07:16:29;;;;;;;2.50;0.90;;;24.70;46.50;;;;;;5009807;28;20203;-61
2021/07/14 07:18:56;;;;;;;3.13;0.85;;;24.70;46.20;;;;;;5010414;28;20203;-63
2021/07/14 07:21:23;;;;;;;2.47;1.35;;;24.70;46.10;;;;;;5010211;28;20766;-61
2021/07/14 07:23:49;;;;;;;4.00;1.25;;;24.70;45.90;;;;;;5010130;28;20258;-62
2021/07/14 07:26:16;;;;;;;1.58;0.90;;;24.70;45.70;;;;;;5014248;28;20306;-60
2021/07/14 07:28:42;;;;;;;4.32;1.30;;;24.70;45.50;;;;;;5006393;28;20203;-64
2021/07/14 07:31:09;;;;;;;3.65;1.45;;;24.70;45.40;;;;;;5008320;28;20758;-60
2021/07/14 07:33:35;;;;;;;2.33;1.60;;;24.70;45.30;;;;;;4992268;28;20231;-63
2021/07/14 07:36:02;;;;;;;2.17;1.50;;;24.70;45.30;;;;;;5004984;28;20221;-59
2021/07/14 07:38:28;;;;;;;4.57;1.30;;;24.70;45.50;;;;;;5009784;28;20203;-65
2021/07/14 07:40:57;;;;;;;4.00;1.30;;;24.70;45.70;;;;;;5011220;28;20243;-70
2021/07/14 07:43:23;;;;;;;3.25;1.38;;;24.70;46.20;;;;;;5004630;28;20227;-71
2021/07/14 07:45:50;;;;;;;4.55;2.03;;;24.70;46.10;;;;;;5010426;28;20222;-64
2021/07/14 07:48:16;;;;;;;3.42;1.60;;;24.70;47.20;;;;;;5010219;28;20225;-69
2021/07/14 07:50:43;;;;;;;4.22;1.90;;;24.70;47.10;;;;;;4995400;28;20290;-69
2021/07/14 07:53:09;;;;;;;5.47;2.20;;;24.70;47.20;;;;;;4999539;28;20264;-67
2021/07/14 07:55:36;;;;;;;5.90;2.03;;;24.70;47.20;;;;;;5012068;28;20199;-66
2021/07/14 07:58:02;;;;;;;5.22;1.85;;;24.70;47.20;;;;;;5011387;28;20209;-66
2021/07/14 08:00:29;;;;;;;3.92;1.88;;;24.70;47.40;;;;;;5009164;28;20576;-65
2021/07/14 08:02:56;;;;;;;3.30;1.90;;;24.10;43.20;;;;;;5009267;28;20241;-65
2021/07/14 08:05:22;;;;;;;8.15;1.83;;;23.00;44.50;;;;;;5011311;28;20200;-65
2021/07/14 08:07:49;;;;;;;2.33;1.50;;;22.30;46.50;;;;;;5010705;28;20210;-66
2021/07/14 08:10:15;;;;;;;3.20;1.42;;;22.90;46.50;;;;;;5009779;28;20218;-67
2021/07/14 08:12:42;;;;;;;3.35;1.73;;;23.30;46.20;;;;;;5011328;28;20325;-66
2021/07/14 08:15:08;;;;;;;1.48;1.38;;;23.70;46.60;;;;;;5011135;28;20552;-65
2021/07/14 08:17:35;;;;;;;3.40;1.42;;;23.90;47.80;;;;;;5011858;28;20203;-65
2021/07/14 08:20:01;;;;;;;3.42;1.73;;;24.00;47.70;;;;;;5010753;28;20306;-65
2021/07/14 08:22:28;;;;;;;2.10;1.60;;;24.20;47.80;;;;;;4999147;28;20230;-65
2021/07/14 08:24:54;;;;;;;4.60;1.65;;;24.20;47.80;;;;;;5003198;28;20195;-60
2021/07/14 08:27:24;;;;;;;4.05;1.50;;;24.30;47.90;;;;;;5001119;28;20206;-65
2021/07/14 08:29:51;;;;;;;2.75;1.10;;;24.30;48.60;;;;;;5010089;28;20226;-61
2021/07/14 08:32:17;;;;;;;6.45;1.58;;;24.30;47.20;;;;;;5010499;28;20293;-61
2021/07/14 08:34:43;;;;;;;3.20;1.30;;;24.40;48.70;;;;;;5010204;28;20218;-61
2021/07/14 08:37:10;;;;;;;2.28;1.85;;;24.40;47.30;;;;;;5010265;28;20800;-59
2021/07/14 08:39:36;;;;;;;5.68;1.80;;;24.40;48.00;;;;;;5008846;28;20560;-59
2021/07/14 08:42:03;;;;;;;2.53;1.70;;;24.50;47.60;;;;;;5009505;28;20541;-60
2021/07/14 08:44:30;;;;;;;4.90;1.58;;;24.50;47.30;;;;;;5012596;28;20295;-59
2021/07/14 08:46:56;;;;;;;1.85;1.60;;;24.50;48.00;;;;;;5008674;28;20209;-58
2021/07/14 08:49:23;;;;;;;2.45;1.50;;;24.50;47.60;;;;;;5000264;28;20751;-64
2021/07/14 08:51:49;;;;;;;3.33;1.35;;;24.40;47.50;;;;;;5000172;28;20273;-70
2021/07/14 08:54:16;;;;;;;2.67;1.30;;;24.50;47.60;;;;;;5010187;28;20331;-66
2021/07/14 08:56:42;;;;;;;10.93;2.08;;;24.50;46.50;;;;;;5010171;28;20199;-65
2021/07/14 08:59:09;;;;;;;2.97;1.50;;;24.50;46.00;;;;;;5009213;28;20250;-66
2021/07/14 09:01:35;;;;;;;5.43;1.30;;;24.50;46.60;;;;;;5008939;28;20587;-66
2021/07/14 09:04:03;;;;;;;2.25;1.30;;;24.50;47.20;;;;;;5010994;28;20648;-66
2021/07/14 09:06:29;;;;;;;5.80;1.75;;;24.60;47.20;;;;;;5011292;28;20664;-66
2021/07/14 09:08:56;;;;;;;2.53;1.67;;;24.50;47.20;;;;;;5010650;28;20576;-66
2021/07/14 09:11:22;;;;;;;1.63;1.27;;;24.50;47.40;;;;;;5010284;28;20568;-65
2021/07/14 09:13:49;;;;;;;2.70;1.60;;;24.50;47.60;;;;;;5010959;28;20663;-66
2021/07/14 09:16:15;;;;;;;1.95;1.40;;;24.50;47.30;;;;;;5010950;28;20203;-66
2021/07/14 09:18:41;;;;;;;1.80;1.52;;;24.50;47.10;;;;;;5010377;28;20203;-66
2021/07/14 09:21:08;;;;;;;2.50;1.27;;;24.50;47.20;;;;;;5010507;28;20203;-66
2021/07/14 09:23:34;;;;;;;2.00;1.50;;;24.50;47.00;;;;;;5010572;28;20223;-66
2021/07/14 09:26:01;;;;;;;3.50;1.80;;;24.60;47.20;;;;;;5010882;28;20203;-66
2021/07/14 09:28:27;;;;;;;2.33;1.30;;;24.50;47.10;;;;;;5005185;28;20206;-66
2021/07/14 09:30:54;;;;;;;2.85;1.40;;;24.60;47.20;;;;;;4997501;28;20199;-66
2021/07/14 09:33:20;;;;;;;1.33;1.15;;;24.60;47.30;;;;;;5010574;28;20235;-66
2021/07/14 09:35:47;;;;;;;2.78;1.55;;;24.60;47.10;;;;;;5010779;28;20209;-66
2021/07/14 09:38:13;;;;;;;1.63;1.35;;;24.50;46.70;;;;;;5010788;28;20659;-66
2021/07/14 09:40:40;;;;;;;1.95;1.10;;;24.50;46.70;;;;;;5009766;28;20578;-66
2021/07/14 09:43:06;;;;;;;2.97;1.55;;;24.60;46.50;;;;;;5010621;28;20306;-66
2021/07/14 09:45:33;;;;;;;3.38;1.35;;;24.50;46.50;;;;;;5010725;28;20293;-66
2021/07/14 09:47:59;;;;;;;1.13;1.02;;;24.50;46.40;;;;;;5014824;28;20302;-66
2021/07/14 09:50:26;;;;;;;1.95;1.65;;;24.50;46.30;;;;;;5014239;28;20281;-66
2021/07/14 09:52:52;;;;;;;1.50;1.30;;;24.50;46.40;;;;;;5011976;28;20227;-65
2021/07/14 09:55:18;;;;;;;1.67;1.30;;;24.50;46.20;;;;;;5014305;28;20206;-65
2021/07/14 09:57:45;;;;;;;1.58;1.27;;;24.50;46.20;;;;;;5014873;28;20203;-65
2021/07/14 10:00:11;;;;;;;1.92;1.40;;;24.50;46.10;;;;;;5014141;28;20214;-65
2021/07/14 10:02:38;;;;;;;1.70;1.10;;;24.50;46.10;;;;;;5007694;28;20218;-65
2021/07/14 10:05:04;;;;;;;1.40;1.10;;;24.50;46.00;;;;;;5013552;28;20199;-64
2021/07/14 10:07:31;;;;;;;1.73;1.20;;;24.50;46.00;;;;;;5014276;28;20299;-65
2021/07/14 10:10:00;;;;;;;1.58;1.33;;;24.50;45.90;;;;;;5013605;28;20207;-66
2021/07/14 10:12:26;;;;;;;1.55;1.27;;;24.50;45.90;;;;;;5008841;28;20215;-65
2021/07/14 10:14:53;;;;;;;2.28;1.17;;;24.50;45.60;;;;;;5008668;28;20230;-64
2021/07/14 10:17:19;;;;;;;10.50;2.10;;;24.50;46.20;;;;;;5012835;28;20207;-70
2021/07/14 10:19:46;;;;;;;1.77;1.48;;;24.50;46.70;;;;;;5012130;28;20203;-62
2021/07/14 10:22:12;;;;;;;6.10;1.35;;;24.60;46.90;;;;;;5013293;28;20229;-65
2021/07/14 10:24:39;;;;;;;3.75;1.50;;;24.60;46.00;;;;;;5009899;28;20243;-69
2021/07/14 10:27:05;;;;;;;1.55;1.25;;;24.50;46.70;;;;;;5013263;28;20213;-71
2021/07/14 10:29:32;;;;;;;2.25;1.30;;;24.60;46.60;;;;;;5007600;28;20203;-71
2021/07/14 10:31:58;;;;;;;1.90;1.55;;;24.60;46.40;;;;;;5008820;28;20227;-61
2021/07/14 10:34:25;;;;;;;1.88;1.20;;;24.50;45.90;;;;;;5010938;28;20241;-61
2021/07/14 10:36:51;;;;;;;1.48;1.25;;;24.60;46.00;;;;;;5007286;28;20199;-68
2021/07/14 10:39:18;;;;;;;1.63;1.20;;;24.60;46.00;;;;;;5010889;28;20564;-63
2021/07/14 10:41:44;;;;;;;0.80;0.75;;;24.60;45.90;;;;;;5010278;28;20588;-61
2021/07/14 10:44:11;;;;;;;2.30;1.35;;;24.60;45.70;;;;;;5008974;28;20203;-66
2021/07/14 10:46:37;;;;;;;3.05;1.35;;;24.60;45.90;;;;;;5010043;28;20215;-61
2021/07/14 10:49:04;;;;;;;1.40;1.17;;;24.60;46.00;;;;;;5011690;28;20215;-64
2021/07/14 10:51:30;;;;;;;1.45;1.23;;;24.60;46.00;;;;;;5012287;28;20239;-62
2021/07/14 10:53:58;;;;;;;2.70;1.10;;;24.60;46.00;;;;;;5011250;28;20234;-63
2021/07/14 10:56:25;;;;;;;1.75;1.17;;;24.60;45.90;;;;;;5011067;28;20774;-69
2021/07/14 10:58:51;;;;;;;1.58;1.35;;;24.60;45.90;;;;;;5011188;28;20679;-60
2021/07/14 11:01:18;;;;;;;1.73;1.20;;;24.60;45.90;;;;;;5008968;28;20223;-62
2021/07/14 11:03:47;;;;;;;1.35;1.20;;;24.60;45.80;;;;;;5009105;28;20715;-69
2021/07/14 11:06:13;;;;;;;1.67;1.23;;;24.60;45.70;;;;;;5011746;28;20568;-68
2021/07/14 11:08:40;;;;;;;1.60;1.08;;;24.60;46.20;;;;;;5011377;28;21012;-69
2021/07/14 11:11:06;;;;;;;1.23;1.00;;;24.60;46.00;;;;;;5006042;28;20223;-69
2021/07/14 11:13:33;;;;;;;2.22;1.40;;;24.60;45.90;;;;;;4998902;28;20237;-69
2021/07/14 11:15:59;;;;;;;3.60;1.30;;;24.60;45.80;;;;;;5012423;28;20218;-69
2021/07/14 11:18:26;;;;;;;1.70;1.23;;;24.60;45.70;;;;;;5010365;28;20217;-69
2021/07/14 11:20:52;;;;;;;1.33;1.02;;;24.60;45.70;;;;;;5007363;28;20225;-69
2021/07/14 11:23:18;;;;;;;2.30;1.20;;;24.60;45.60;;;;;;5023232;23;20224;-51
2021/07/14 11:25:45;;;;;;;1.60;1.20;;;24.60;45.50;;;;;;4992426;28;20208;-54
2021/07/14 11:28:11;;;;;;;1.25;1.10;;;24.60;45.50;;;;;;4993132;28;20211;-55
2021/07/14 11:30:38;;;;;;;1.35;1.20;;;24.60;45.40;;;;;;4991459;28;20208;-53
2021/07/14 11:33:04;;;;;;;2.33;1.23;;;24.60;45.50;;;;;;4980055;28;20214;-56
2021/07/14 11:35:31;;;;;;;1.60;1.38;;;24.60;45.90;;;;;;5000181;28;20210;-51
2021/07/14 11:38:00;;;;;;;1.23;1.13;;;24.60;45.40;;;;;;4993814;28;20292;-48
2021/07/14 11:40:26;;;;;;;2.05;1.48;;;24.60;45.30;;;;;;4988630;28;20588;-49
2021/07/14 11:42:53;;;;;;;1.95;1.30;;;24.60;45.20;;;;;;5001184;28;20241;-50
2021/07/14 11:45:19;;;;;;;1.60;1.33;;;24.70;45.30;;;;;;4992690;28;20287;-51
2021/07/14 11:47:46;;;;;;;1.27;1.17;;;24.70;45.30;;;;;;4992409;28;20200;-55
2021/07/14 11:50:12;;;;;;;1.98;1.20;;;24.70;45.60;;;;;;4989120;28;20299;-55
2021/07/14 11:52:39;;;;;;;3.20;1.30;;;24.70;45.90;;;;;;4994073;28;20778;-55
2021/07/14 11:55:05;;;;;;;1.85;1.45;;;24.70;46.00;;;;;;4989558;28;20278;-50
2021/07/14 11:57:32;;;;;;;1.92;1.30;;;24.70;46.10;;;;;;4984559;28;20231;-52
2021/07/14 11:59:58;;;;;;;1.35;1.10;;;24.70;46.10;;;;;;4998704;28;20295;-54
2021/07/14 12:02:26;;;;;;;1.83;1.20;;;24.70;46.30;;;;;;4992473;28;20223;-54
2021/07/14 12:04:53;;;;;;;1.40;1.30;;;24.70;46.40;;;;;;4987722;28;20205;-55
2021/07/14 12:07:19;;;;;;;1.50;1.00;;;24.70;46.40;;;;;;4982889;28;20743;-54
2021/07/14 12:09:46;;;;;;;1.95;1.10;;;24.70;46.50;;;;;;4986833;28;20534;-52
2021/07/14 12:12:12;;;;;;;1.60;1.50;;;24.70;46.50;;;;;;4991799;28;20220;-51
2021/07/14 12:14:39;;;;;;;2.92;1.23;;;24.70;46.60;;;;;;5005342;28;20711;-51
2021/07/14 12:17:05;;;;;;;1.42;1.33;;;24.70;46.50;;;;;;4993187;28;20680;-55
2021/07/14 12:19:31;;;;;;;1.85;1.30;;;24.70;46.60;;;;;;4991121;28;20575;-51
2021/07/14 12:21:58;;;;;;;1.17;1.08;;;24.70;46.60;;;;;;4995758;28;20538;-52
2021/07/14 12:24:24;;;;;;;1.50;1.20;;;24.70;46.60;;;;;;4992242;28;20579;-50
2021/07/14 12:26:51;;;;;;;1.02;0.93;;;24.70;46.70;;;;;;5000142;28;20233;-53
2021/07/14 12:29:17;;;;;;;2.13;1.95;;;24.70;46.70;;;;;;5004723;28;20613;-54
2021/07/14 12:31:44;;;;;;;2.00;1.20;;;24.70;46.70;;;;;;4985542;28;20305;-55
2021/07/14 12:34:11;;;;;;;1.75;1.35;;;24.70;46.70;;;;;;5012139;28;20227;-52
2021/07/14 12:36:37;;;;;;;1.98;1.02;;;24.70;46.70;;;;;;5001681;28;20204;-54
2021/07/14 12:39:04;;;;;;;2.70;1.25;;;24.70;46.70;;;;;;5010581;28;20209;-53
2021/07/14 12:41:30;;;;;;;1.08;0.98;;;24.70;46.80;;;;;;5005913;28;20230;-53
2021/07/14 12:43:57;;;;;;;1.00;1.00;;;24.70;46.80;;;;;;5002298;28;20235;-53
2021/07/14 12:46:23;;;;;;;2.30;1.02;;;24.70;46.80;;;;;;5007731;28;20231;-55
2021/07/14 12:48:50;;;;;;;1.45;1.35;;;24.70;46.80;;;;;;5010517;28;20303;-54